Time;durP1;ratioP1;P1;durP2;ratioP2;P2;SDS_P1;SDS_P2;PMS_P1;PMS_P2;Temp;Humidity;BMP_temperature;BMP_pressure;BME280_temperature;BME280_humidity;BME280_pressure;Samples;Min_cycle;Max_cycle;Signal;HPM_P1;HPM_P2
2021/12/13 00:01:50;;;;;;;;;;;9.10;99.90;;;;;;5052819;28;20271;-74
2021/12/13 00:04:22;;;;;;;;;;;9.00;99.90;;;;;;5051921;28;19927;-74
2021/12/13 00:06:49;;;;;;;;;;;8.90;99.90;;;;;;5051490;28;19911;-73
2021/12/13 00:09:17;;;;;;;;;;;8.90;99.90;;;;;;5051787;28;19958;-73
2021/12/13 00:11:45;;;;;;;;;;;8.80;99.90;;;;;;5052343;28;19904;-74
2021/12/13 00:14:13;;;;;;;;;;;8.80;99.90;;;;;;5052132;28;20291;-74
2021/12/13 00:16:45;;;;;;;;;;;8.80;99.90;;;;;;5052297;28;19911;-74
2021/12/13 00:19:13;;;;;;;;;;;8.70;99.90;;;;;;5050777;28;20403;-74
2021/12/13 00:21:41;;;;;;;;;;;8.70;99.90;;;;;;5052053;28;19913;-73
2021/12/13 00:24:20;;;;;;;;;;;8.60;99.90;;;;;;5051817;28;20348;-74
2021/12/13 00:26:47;;;;;;;;;;;8.50;99.90;;;;;;5052501;28;19912;-74
2021/12/13 00:29:20;;;;;;;;;;;8.60;99.90;;;;;;5067444;28;19911;-74
2021/12/13 00:32:05;;;;;;;;;;;8.50;99.90;;;;;;5052288;28;19999;-75
2021/12/13 00:34:38;;;;;;;;;;;8.50;99.90;;;;;;5052305;28;19909;-76
2021/12/13 00:37:10;;;;;;;;;;;8.40;99.90;;;;;;5051846;28;19905;-75
2021/12/13 00:39:51;;;;;;;;;;;8.40;99.90;;;;;;5052348;28;20258;-75
2021/12/13 00:42:17;;;;;;;;;;;8.30;99.90;;;;;;5052171;28;19916;-75
2021/12/13 00:44:50;;;;;;;;;;;8.30;99.90;;;;;;5052362;28;19909;-74
2021/12/13 00:47:19;;;;;;;;;;;8.30;99.90;;;;;;5051810;28;19901;-75
2021/12/13 00:49:46;;;;;;;;;;;8.30;99.90;;;;;;5052102;28;19909;-74
2021/12/13 00:52:15;;;;;;;;;;;8.20;99.90;;;;;;5051951;28;20354;-74
2021/12/13 00:54:41;;;;;;;;;;;8.20;99.90;;;;;;5052677;28;19909;-73
2021/12/13 00:57:07;;;;;;;;;;;8.20;99.90;;;;;;5051958;28;19912;-75
2021/12/13 00:59:38;;;;;;;;;;;8.20;99.90;;;;;;5052061;28;20060;-74
2021/12/13 01:02:09;;;;;;;;;;;8.20;99.90;;;;;;5050560;28;20278;-74
2021/12/13 01:04:54;;;;;;;;;;;8.10;99.90;;;;;;5052470;28;19951;-74
2021/12/13 01:07:38;;;;;;;;;;;8.10;99.90;;;;;;5055522;28;19901;-74
2021/12/13 01:10:22;;;;;;;;;;;8.20;99.90;;;;;;5055475;28;20366;-74
2021/12/13 01:12:49;;;;;;;;;;;8.10;99.90;;;;;;5056427;28;19908;-74
2021/12/13 01:15:15;;;;;;;;;;;8.10;99.90;;;;;;5055432;28;19905;-74
2021/12/13 01:20:19;;;;;;;;;;;8.00;99.90;;;;;;5055589;28;19909;-74
2021/12/13 01:22:57;;;;;;;;;;;8.00;99.90;;;;;;5056159;28;19904;-74
2021/12/13 01:28:18;;;;;;;;;;;8.00;99.90;;;;;;5055440;28;19970;-74
2021/12/13 01:30:50;;;;;;;;;;;8.00;99.90;;;;;;5056212;28;19943;-74
2021/12/13 01:33:17;;;;;;;;;;;8.00;99.90;;;;;;5055532;28;19911;-74
2021/12/13 01:35:43;;;;;;;;;;;8.00;99.90;;;;;;5054741;28;19911;-74
2021/12/13 01:38:11;;;;;;;;;;;8.00;99.90;;;;;;5055687;28;19932;-74
2021/12/13 01:40:38;;;;;;;;;;;8.00;99.90;;;;;;5055815;28;20423;-74
2021/12/13 01:43:15;;;;;;;;;;;8.00;99.90;;;;;;5055355;28;19912;-74
2021/12/13 01:45:44;;;;;;;;;;;8.00;99.90;;;;;;5055831;28;19908;-74
2021/12/13 01:48:15;;;;;;;;;;;8.00;99.90;;;;;;5055411;28;20263;-74
2021/12/13 01:50:47;;;;;;;;;;;8.00;99.90;;;;;;5055582;28;19954;-74
2021/12/13 01:53:13;;;;;;;;;;;8.00;99.90;;;;;;5055248;28;19904;-74
2021/12/13 01:55:41;;;;;;;;;;;8.10;99.90;;;;;;5055850;28;19905;-74
2021/12/13 01:58:34;;;;;;;;;;;8.20;99.90;;;;;;5055093;28;20378;-74
2021/12/13 02:01:19;;;;;;;;;;;8.20;99.90;;;;;;5072687;28;19919;-74
2021/12/13 02:03:45;;;;;;;;;;;8.10;99.90;;;;;;5058540;28;19911;-74
2021/12/13 02:06:14;;;;;;;;;;;8.20;99.90;;;;;;5054355;28;19920;-73
2021/12/13 02:08:39;;;;;;;;;;;8.20;99.90;;;;;;5054474;28;20256;-74
2021/12/13 02:11:05;;;;;;;;;;;8.20;99.90;;;;;;5054508;28;19911;-74
2021/12/13 02:13:38;;;;;;;;;;;8.20;99.90;;;;;;5054875;28;19916;-74
2021/12/13 02:18:50;;;;;;;;;;;8.20;99.90;;;;;;5054023;28;20321;-74
2021/12/13 02:21:27;;;;;;;;;;;8.20;99.90;;;;;;5054444;28;19913;-74
2021/12/13 02:23:55;;;;;;;;;;;8.20;99.90;;;;;;5055148;28;20019;-75
2021/12/13 02:26:21;;;;;;;;;;;8.20;99.90;;;;;;5053241;28;19912;-74
2021/12/13 02:28:53;;;;;;;;;;;8.20;99.90;;;;;;5055071;28;20282;-75
2021/12/13 02:31:20;;;;;;;;;;;8.20;99.90;;;;;;5054031;28;20343;-75
2021/12/13 02:33:54;;;;;;;;;;;8.20;99.90;;;;;;5054919;28;19904;-74
2021/12/13 02:36:22;;;;;;;;;;;8.20;99.90;;;;;;5053875;28;19912;-75
2021/12/13 02:38:49;;;;;;;;;;;8.20;99.90;;;;;;5053713;28;19963;-73
2021/12/13 02:41:16;;;;;;;;;;;8.20;99.90;;;;;;5053754;28;19967;-74
2021/12/13 02:43:43;;;;;;;;;;;8.20;99.90;;;;;;5054721;28;20019;-74
2021/12/13 02:46:09;;;;;;;;;;;8.20;99.90;;;;;;5054007;28;19930;-74
2021/12/13 02:48:35;;;;;;;;;;;8.20;99.90;;;;;;5054619;28;19912;-74
2021/12/13 02:51:04;;;;;;;;;;;8.20;99.90;;;;;;5054220;28;19909;-73
2021/12/13 02:53:32;;;;;;;;;;;8.20;99.90;;;;;;5053993;28;19905;-74
2021/12/13 02:55:58;;;;;;;;;;;8.10;99.90;;;;;;5054465;28;20008;-73
2021/12/13 02:58:25;;;;;;;;;;;8.10;99.90;;;;;;5053878;28;20374;-73
2021/12/13 03:00:53;;;;;;;;;;;8.10;99.90;;;;;;5054320;28;19917;-73
2021/12/13 03:03:21;;;;;;;;;;;8.10;99.90;;;;;;5052490;28;19959;-74
2021/12/13 03:05:50;;;;;;;;;;;8.00;99.90;;;;;;5054137;28;20327;-73
2021/12/13 03:08:22;;;;;;;;;;;8.00;99.90;;;;;;5053561;28;19966;-73
2021/12/13 03:10:50;;;;;;;;;;;8.00;99.90;;;;;;5052953;28;19927;-73
2021/12/13 03:13:17;;;;;;;;;;;8.00;99.90;;;;;;5053583;28;19911;-74
2021/12/13 03:15:48;;;;;;;;;;;8.00;99.90;;;;;;5052808;28;19904;-73
2021/12/13 03:18:18;;;;;;;;;;;8.00;99.90;;;;;;5052370;28;20405;-73
2021/12/13 03:20:50;;;;;;;;;;;8.00;99.90;;;;;;5053549;28;19913;-73
2021/12/13 03:23:18;;;;;;;;;;;7.90;99.90;;;;;;5053302;28;19905;-74
2021/12/13 03:26:02;;;;;;;;;;;7.90;99.90;;;;;;5053799;28;19904;-74
2021/12/13 03:28:40;;;;;;;;;;;8.00;99.90;;;;;;5052683;28;19905;-74
2021/12/13 03:31:26;;;;;;;;;;;8.00;99.90;;;;;;5053468;28;19905;-74
2021/12/13 03:34:00;;;;;;;;;;;7.90;99.90;;;;;;5052755;28;19991;-74
2021/12/13 03:36:48;;;;;;;;;;;7.90;99.90;;;;;;5052913;28;19905;-74
2021/12/13 03:39:16;;;;;;;;;;;7.90;99.90;;;;;;5053120;28;20274;-74
2021/12/13 03:41:46;;;;;;;;;;;7.90;99.90;;;;;;5053547;28;20302;-74
2021/12/13 03:44:14;;;;;;;;;;;7.90;99.90;;;;;;5052630;28;20260;-74
2021/12/13 03:46:43;;;;;;;;;;;7.90;99.90;;;;;;5052713;28;19905;-74
2021/12/13 03:49:08;;;;;;;;;;;7.90;99.90;;;;;;5053091;28;19905;-74
2021/12/13 03:51:36;;;;;;;;;;;7.90;99.90;;;;;;5053092;28;19912;-74
2021/12/13 03:54:04;;;;;;;;;;;8.00;99.90;;;;;;5053456;28;19904;-74
2021/12/13 03:56:35;;;;;;;;;;;7.90;99.90;;;;;;5052866;28;19901;-74
2021/12/13 03:59:06;;;;;;;;;;;8.00;99.90;;;;;;5053819;28;19909;-74
2021/12/13 04:01:36;;;;;;;;;;;8.00;99.90;;;;;;5052451;28;19908;-74
2021/12/13 04:04:04;;;;;;;;;;;7.90;99.90;;;;;;5053219;28;19968;-74
2021/12/13 04:06:30;;;;;;;;;;;7.90;99.90;;;;;;5052183;28;19918;-73
2021/12/13 04:08:57;;;;;;;;;;;7.80;99.90;;;;;;5052923;28;19988;-73
2021/12/13 04:11:24;;;;;;;;;;;7.90;99.90;;;;;;5052177;28;19912;-73
2021/12/13 04:13:54;;;;;;;;;;;7.90;99.90;;;;;;5052668;28;19967;-73
2021/12/13 04:16:29;;;;;;;;;;;7.90;99.90;;;;;;5051261;28;19905;-73
2021/12/13 04:19:08;;;;;;;;;;;7.90;99.90;;;;;;5052956;28;19904;-73
2021/12/13 04:21:38;;;;;;;;;;;7.90;99.90;;;;;;5052170;28;19919;-73
2021/12/13 04:24:05;;;;;;;;;;;7.90;99.90;;;;;;5052730;28;19909;-73
2021/12/13 04:26:36;;;;;;;;;;;7.90;99.90;;;;;;5067719;28;19908;-73
2021/12/13 04:29:02;;;;;;;;;;;7.90;99.90;;;;;;5051276;28;19940;-73
2021/12/13 04:31:31;;;;;;;;;;;7.80;99.90;;;;;;5052192;28;19904;-73
2021/12/13 04:34:01;;;;;;;;;;;7.90;99.90;;;;;;5051512;28;19919;-73
2021/12/13 04:36:34;;;;;;;;;;;7.90;99.90;;;;;;5051971;28;19912;-73
2021/12/13 04:39:24;;;;;;;;;;;7.90;99.90;;;;;;5051547;28;20418;-73
2021/12/13 04:42:00;;;;;;;;;;;7.90;99.90;;;;;;5051001;28;20011;-73
2021/12/13 04:44:29;;;;;;;;;;;7.90;99.90;;;;;;5052124;28;20051;-73
2021/12/13 04:46:55;;;;;;;;;;;7.90;99.90;;;;;;5052382;28;20362;-72
2021/12/13 04:49:23;;;;;;;;;;;7.90;99.90;;;;;;5051746;28;20011;-73
2021/12/13 04:51:57;;;;;;;;;;;8.00;99.90;;;;;;5052219;28;19905;-73
2021/12/13 04:54:24;;;;;;;;;;;8.00;99.90;;;;;;5051899;28;20394;-73
2021/12/13 04:56:50;;;;;;;;;;;8.00;99.90;;;;;;5052604;28;19905;-73
2021/12/13 04:59:16;;;;;;;;;;;8.00;99.90;;;;;;5052098;28;19905;-73
2021/12/13 05:01:47;;;;;;;;;;;7.90;99.90;;;;;;5052656;28;20367;-73
2021/12/13 05:04:14;;;;;;;;;;;7.90;99.90;;;;;;5051947;28;20423;-73
2021/12/13 05:06:40;;;;;;;;;;;7.80;99.90;;;;;;5052480;28;19905;-73
2021/12/13 05:09:08;;;;;;;;;;;7.90;99.90;;;;;;5052536;28;19908;-75
2021/12/13 05:11:36;;;;;;;;;;;7.90;99.90;;;;;;5051809;28;19907;-73
2021/12/13 05:14:04;;;;;;;;;;;7.80;99.90;;;;;;5052253;28;19912;-73
2021/12/13 05:16:48;;;;;;;;;;;7.80;99.90;;;;;;5051528;28;20363;-73
2021/12/13 05:19:16;;;;;;;;;;;7.80;99.90;;;;;;5052518;28;19905;-73
2021/12/13 05:21:44;;;;;;;;;;;7.80;99.90;;;;;;5050817;28;20007;-73
2021/12/13 05:24:12;;;;;;;;;;;7.80;99.90;;;;;;5051994;28;20437;-73
2021/12/13 05:26:54;;;;;;;;;;;7.90;99.90;;;;;;5050991;28;19901;-73
2021/12/13 05:29:31;;;;;;;;;;;7.90;99.90;;;;;;5052176;28;19909;-73
2021/12/13 05:31:59;;;;;;;;;;;7.90;99.90;;;;;;5052317;28;20014;-73
2021/12/13 05:34:29;;;;;;;;;;;7.80;99.90;;;;;;5052268;28;19904;-74
2021/12/13 05:36:57;;;;;;;;;;;7.90;99.90;;;;;;5052835;28;19905;-73
2021/12/13 05:39:23;;;;;;;;;;;7.80;99.90;;;;;;5051518;28;19908;-73
2021/12/13 05:41:54;;;;;;;;;;;7.70;99.90;;;;;;5052242;28;20058;-73
2021/12/13 05:44:42;;;;;;;;;;;7.70;99.90;;;;;;5051386;28;20317;-73
2021/12/13 05:47:16;;;;;;;;;;;7.70;99.90;;;;;;5052122;28;19940;-74
2021/12/13 05:49:43;;;;;;;;;;;7.70;99.90;;;;;;5051412;28;19927;-74
2021/12/13 05:52:10;;;;;;;;;;;7.70;99.90;;;;;;5067515;28;19911;-74
2021/12/13 05:54:39;;;;;;;;;;;7.70;99.90;;;;;;5053762;28;20038;-74
2021/12/13 05:57:08;;;;;;;;;;;7.70;99.90;;;;;;5055925;28;19911;-74
2021/12/13 05:59:36;;;;;;;;;;;7.70;99.90;;;;;;5054845;28;19912;-74
2021/12/13 06:02:08;;;;;;;;;;;7.70;99.90;;;;;;5055083;28;19919;-74
2021/12/13 06:04:33;;;;;;;;;;;7.70;99.90;;;;;;5069890;28;19996;-74
2021/12/13 06:06:59;;;;;;;;;;;7.70;99.90;;;;;;5055561;28;19944;-74
2021/12/13 06:09:45;;;;;;;;;;;7.80;99.90;;;;;;5054536;28;19904;-74
2021/12/13 06:12:13;;;;;;;;;;;7.70;99.90;;;;;;5055185;28;20267;-74
2021/12/13 06:14:39;;;;;;;;;;;7.70;99.90;;;;;;5053229;28;20082;-74
2021/12/13 06:17:10;;;;;;;;;;;7.70;99.90;;;;;;5060531;28;19912;-74
2021/12/13 06:19:46;;;;;;;;;;;7.70;99.90;;;;;;5077602;28;19905;-73
2021/12/13 06:22:20;;;;;;;;;;;7.70;99.90;;;;;;5075614;28;19917;-74
2021/12/13 06:24:52;;;;;;;;;;;7.70;99.90;;;;;;5057500;28;19905;-74
2021/12/13 06:27:20;;;;;;;;;;;7.70;99.90;;;;;;5055084;28;19905;-74
2021/12/13 06:29:45;;;;;;;;;;;7.70;99.90;;;;;;5054735;28;20367;-74
2021/12/13 06:32:40;;;;;;;;;;;7.70;99.90;;;;;;5053862;28;19904;-74
2021/12/13 06:35:24;;;;;;;;;;;7.70;99.90;;;;;;5054216;28;19904;-74
2021/12/13 06:37:50;;;;;;;;;;;7.70;99.90;;;;;;5054506;28;20290;-74
2021/12/13 06:40:26;;;;;;;;;;;7.70;99.90;;;;;;5054410;28;19905;-74
2021/12/13 06:42:52;;;;;;;;;;;7.70;99.90;;;;;;5055121;28;19905;-74
2021/12/13 06:45:20;;;;;;;;;;;7.80;99.90;;;;;;5054745;28;19904;-74
2021/12/13 06:47:47;;;;;;;;;;;7.80;99.90;;;;;;5054058;28;19991;-73
2021/12/13 06:50:18;;;;;;;;;;;7.70;99.90;;;;;;5054545;28;19904;-73
2021/12/13 06:52:44;;;;;;;;;;;7.80;99.90;;;;;;5053662;28;19960;-73
2021/12/13 06:55:12;;;;;;;;;;;7.80;99.90;;;;;;5054316;28;19962;-74
2021/12/13 06:57:41;;;;;;;;;;;7.80;99.90;;;;;;5053685;28;19905;-73
2021/12/13 07:00:09;;;;;;;;;;;7.80;99.90;;;;;;5054416;28;20248;-73
2021/12/13 07:02:35;;;;;;;;;;;7.80;99.90;;;;;;5053777;28;19909;-74
2021/12/13 07:05:04;;;;;;;;;;;7.80;99.90;;;;;;5052471;28;20256;-74
2021/12/13 07:07:48;;;;;;;;;;;7.80;99.90;;;;;;5052899;28;19988;-74
2021/12/13 07:10:15;;;;;;;;;;;7.80;99.90;;;;;;5052997;28;19904;-74
2021/12/13 07:12:46;;;;;;;;;;;7.80;99.90;;;;;;5053582;28;19908;-73
2021/12/13 07:15:26;;;;;;;;;;;7.90;99.90;;;;;;5053600;28;19940;-73
2021/12/13 07:18:11;;;;;;;;;;;7.90;99.90;;;;;;5054391;28;19905;-73
2021/12/13 07:20:58;;;;;;;;;;;7.80;99.90;;;;;;5053200;28;19917;-74
2021/12/13 07:23:24;;;;;;;;;;;7.80;99.90;;;;;;5052692;28;19905;-73
2021/12/13 07:25:52;;;;;;;;;;;7.90;99.90;;;;;;5052091;28;20421;-74
2021/12/13 07:28:33;;;;;;;;;;;7.80;99.90;;;;;;5053340;28;20003;-74
2021/12/13 07:30:58;;;;;;;;;;;7.80;99.90;;;;;;5053590;28;19904;-74
2021/12/13 07:33:33;;;;;;;;;;;7.80;99.90;;;;;;5053290;28;19928;-73
2021/12/13 07:35:58;;;;;;;;;;;7.70;99.90;;;;;;5052258;28;20271;-75
2021/12/13 07:38:28;;;;;;;;;;;7.70;99.90;;;;;;5053129;28;19912;-75
2021/12/13 07:40:55;;;;;;;;;;;7.70;99.90;;;;;;5052920;28;20282;-75
2021/12/13 07:43:23;;;;;;;;;;;7.70;99.90;;;;;;5053345;28;20050;-75
2021/12/13 07:46:08;;;;;;;;;;;7.70;99.90;;;;;;5052321;28;20490;-75
2021/12/13 07:48:36;;;;;;;;;;;7.70;99.90;;;;;;5052463;28;19905;-75
2021/12/13 07:51:20;;;;;;;;;;;7.80;99.90;;;;;;5052906;28;20042;-75
2021/12/13 07:53:50;;;;;;;;;;;7.80;99.90;;;;;;5052132;28;20461;-75
2021/12/13 07:56:28;;;;;;;;;;;7.70;99.90;;;;;;5052867;28;19905;-74
2021/12/13 07:59:02;;;;;;;;;;;7.70;99.90;;;;;;5052991;28;19904;-75
2021/12/13 08:01:29;;;;;;;;;;;7.70;99.90;;;;;;5052843;28;19913;-75
2021/12/13 08:03:54;;;;;;;;;;;7.70;99.90;;;;;;5052655;28;19928;-75
2021/12/13 08:06:21;;;;;;;;;;;7.70;99.90;;;;;;5052825;28;19921;-75
2021/12/13 08:08:49;;;;;;;;;;;7.70;99.90;;;;;;5052068;28;19900;-75
2021/12/13 08:11:16;;;;;;;;;;;7.70;99.90;;;;;;5053020;28;19955;-74
2021/12/13 08:13:53;;;;;;;;;;;7.60;99.90;;;;;;5067401;28;19905;-74
2021/12/13 08:16:27;;;;;;;;;;;7.60;99.90;;;;;;5052284;28;20003;-75
2021/12/13 08:19:02;;;;;;;;;;;7.60;99.90;;;;;;5051093;28;19905;-75
2021/12/13 08:21:27;;;;;;;;;;;7.60;99.90;;;;;;5052199;28;19912;-74
2021/12/13 08:23:55;;;;;;;;;;;7.60;99.90;;;;;;5052416;28;19958;-74
2021/12/13 08:26:40;;;;;;;;;;;7.60;99.90;;;;;;5052334;28;20252;-75
2021/12/13 08:29:21;;;;;;;;;;;7.60;99.90;;;;;;5052247;28;19905;-75
2021/12/13 08:31:50;;;;;;;;;;;7.50;99.90;;;;;;5051657;28;19904;-75
2021/12/13 08:34:23;;;;;;;;;;;7.50;99.90;;;;;;5051688;28;19904;-76
2021/12/13 08:36:50;;;;;;;;;;;7.40;99.90;;;;;;5047971;28;19901;-76
2021/12/13 08:39:30;;;;;;;;;;;7.40;99.90;;;;;;5052363;28;20051;-76
2021/12/13 08:41:57;;;;;;;;;;;7.40;99.90;;;;;;5052170;28;19983;-75
2021/12/13 08:44:28;;;;;;;;;;;7.30;99.90;;;;;;5051306;28;20367;-76
2021/12/13 08:46:57;;;;;;;;;;;7.30;99.90;;;;;;5049915;28;19908;-76
2021/12/13 08:49:41;;;;;;;;;;;7.30;99.90;;;;;;5051392;28;19932;-75
2021/12/13 08:52:06;;;;;;;;;;;7.40;99.90;;;;;;5051423;28;19911;-74
2021/12/13 08:54:38;;;;;;;;;;;7.40;99.90;;;;;;5050941;28;20004;-74
2021/12/13 08:57:05;;;;;;;;;;;7.40;99.90;;;;;;5052073;28;19904;-74
2021/12/13 08:59:30;;;;;;;;;;;7.40;99.90;;;;;;5051036;28;19932;-74
2021/12/13 09:02:06;;;;;;;;;;;7.40;99.90;;;;;;5052057;28;20351;-74
2021/12/13 09:04:34;;;;;;;;;;;7.40;99.90;;;;;;5049822;28;19917;-73
2021/12/13 09:07:02;;;;;;;;;;;7.40;99.90;;;;;;5052142;28;19912;-74
2021/12/13 09:09:28;;;;;;;;;;;7.40;99.90;;;;;;5051731;28;19952;-75
2021/12/13 09:12:00;;;;;;;;;;;7.40;99.90;;;;;;5051794;28;19909;-74
2021/12/13 09:14:36;;;;;;;;;;;7.40;99.90;;;;;;5051879;28;19904;-74
2021/12/13 09:17:21;;;;;;;;;;;7.30;99.90;;;;;;5051795;28;20374;-74
2021/12/13 09:19:52;;;;;;;;;;;7.30;99.90;;;;;;5050463;28;19911;-74
2021/12/13 09:22:20;;;;;;;;;;;7.30;99.90;;;;;;5051393;28;20378;-74
2021/12/13 09:24:46;;;;;;;;;;;7.30;99.90;;;;;;5051151;28;19905;-75
2021/12/13 09:27:18;;;;;;;;;;;7.30;99.90;;;;;;5053372;28;20297;-75
2021/12/13 09:29:48;;;;;;;;;;;7.30;99.90;;;;;;5054911;28;19978;-74
2021/12/13 09:32:14;;;;;;;;;;;7.30;99.90;;;;;;5053867;28;19912;-74
2021/12/13 09:34:40;;;;;;;;;;;7.30;99.90;;;;;;5054668;28;19905;-74
2021/12/13 09:37:05;;;;;;;;;;;7.30;99.90;;;;;;5053549;28;19911;-73
2021/12/13 09:39:31;;;;;;;;;;;7.30;99.90;;;;;;5053245;28;20294;-73
2021/12/13 09:41:59;;;;;;;;;;;7.30;99.90;;;;;;5055030;28;19913;-73
2021/12/13 09:44:29;;;;;;;;;;;7.30;99.90;;;;;;5055120;28;19908;-73
2021/12/13 09:47:01;;;;;;;;;;;7.20;99.90;;;;;;5054291;28;19909;-73
2021/12/13 09:49:32;;;;;;;;;;;7.20;99.90;;;;;;5054711;28;19911;-73
2021/12/13 09:52:16;;;;;;;;;;;7.30;99.90;;;;;;5054395;28;19912;-74
2021/12/13 09:54:47;;;;;;;;;;;7.30;99.90;;;;;;5054285;28;19905;-73
2021/12/13 09:57:15;;;;;;;;;;;7.30;99.90;;;;;;5054595;28;20034;-73
2021/12/13 09:59:42;;;;;;;;;;;7.30;99.90;;;;;;5057138;28;19905;-73
2021/12/13 10:02:15;;;;;;;;;;;7.30;99.90;;;;;;5070282;28;19962;-73
2021/12/13 10:04:42;;;;;;;;;;;7.30;99.90;;;;;;5053689;28;19917;-74
2021/12/13 10:07:20;;;;;;;;;;;7.40;99.90;;;;;;5054797;28;20314;-73
2021/12/13 10:09:53;;;;;;;;;;;7.40;99.90;;;;;;5054425;28;19905;-73
2021/12/13 10:12:24;;;;;;;;;;;7.50;99.90;;;;;;5054668;28;19911;-74
2021/12/13 10:14:53;;;;;;;;;;;7.50;99.90;;;;;;5053665;28;19912;-73
2021/12/13 10:17:20;;;;;;;;;;;7.50;99.90;;;;;;5053732;28;20326;-73
2021/12/13 10:19:48;;;;;;;;;;;7.60;99.90;;;;;;5052916;28;20228;-73
2021/12/13 10:22:15;;;;;;;;;;;7.60;99.90;;;;;;5053982;28;20333;-73
2021/12/13 10:24:50;;;;;;;;;;;7.60;99.90;;;;;;5052151;28;19947;-73
2021/12/13 10:27:17;;;;;;;;;;;7.60;99.90;;;;;;5054206;28;19911;-73
2021/12/13 10:29:45;;;;;;;;;;;7.60;99.90;;;;;;5053617;28;19995;-73
2021/12/13 10:32:13;;;;;;;;;;;7.60;99.90;;;;;;5054787;28;19909;-73
2021/12/13 10:34:42;;;;;;;;;;;7.60;99.90;;;;;;5053759;28;19905;-73
2021/12/13 10:37:09;;;;;;;;;;;7.70;99.90;;;;;;5054476;28;20291;-73
2021/12/13 10:39:38;;;;;;;;;;;7.70;99.90;;;;;;5052402;28;19940;-73
2021/12/13 10:42:06;;;;;;;;;;;7.80;99.90;;;;;;5053666;28;20544;-73
2021/12/13 10:44:31;;;;;;;;;;;7.80;99.90;;;;;;5054439;28;20318;-74
2021/12/13 10:46:59;;;;;;;;;;;7.80;99.90;;;;;;5054230;28;19908;-73
2021/12/13 10:49:27;;;;;;;;;;;7.80;99.90;;;;;;5054053;28;19987;-73
2021/12/13 10:51:56;;;;;;;;;;;7.90;99.90;;;;;;5053605;28;19958;-74
2021/12/13 10:54:23;;;;;;;;;;;7.90;99.90;;;;;;5054200;28;19908;-74
2021/12/13 10:56:51;;;;;;;;;;;7.90;99.90;;;;;;5052959;28;20236;-74
2021/12/13 10:59:19;;;;;;;;;;;7.90;99.90;;;;;;5053430;28;19912;-74
2021/12/13 11:01:46;;;;;;;;;;;7.90;99.90;;;;;;5053070;28;19920;-74
2021/12/13 11:04:14;;;;;;;;;;;8.00;99.90;;;;;;5053741;28;19905;-73
2021/12/13 11:06:43;;;;;;;;;;;8.00;99.90;;;;;;5053316;28;19974;-74
2021/12/13 11:09:10;;;;;;;;;;;8.00;99.90;;;;;;5054005;28;19905;-74
2021/12/13 11:11:56;;;;;;;;;;;8.00;99.90;;;;;;5053432;28;20262;-74
2021/12/13 11:14:22;;;;;;;;;;;8.00;99.90;;;;;;5053778;28;20003;-74
2021/12/13 11:16:53;;;;;;;;;;;8.10;99.90;;;;;;5052885;28;20066;-74
2021/12/13 11:19:21;;;;;;;;;;;8.20;99.90;;;;;;5053057;28;19905;-74
2021/12/13 11:21:48;;;;;;;;;;;8.20;99.90;;;;;;5052616;28;20409;-74
2021/12/13 11:24:15;;;;;;;;;;;8.20;99.90;;;;;;5053695;28;19911;-74
2021/12/13 11:26:42;;;;;;;;;;;8.20;99.90;;;;;;5052526;28;19909;-74
2021/12/13 11:29:10;;;;;;;;;;;8.20;99.90;;;;;;5053725;28;19995;-74
2021/12/13 11:31:48;;;;;;;;;;;8.20;99.90;;;;;;5053036;28;19904;-74
2021/12/13 11:34:23;;;;;;;;;;;8.30;99.90;;;;;;5053198;28;20322;-74
2021/12/13 11:37:27;;;;;;;;;;;8.30;99.90;;;;;;5051885;28;19904;-74
2021/12/13 11:40:01;;;;;;;;;;;8.40;99.90;;;;;;5049790;28;19954;-74
2021/12/13 11:42:45;;;;;;;;;;;8.40;99.90;;;;;;5050378;28;20341;-74
2021/12/13 11:45:35;;;;;;;;;;;8.40;99.90;;;;;;5051975;28;19910;-74
2021/12/13 11:48:19;;;;;;;;;;;8.50;99.90;;;;;;5052470;28;19955;-74
2021/12/13 11:51:00;;;;;;;;;;;8.50;99.90;;;;;;5051326;28;19905;-74
2021/12/13 11:53:44;;;;;;;;;;;8.50;99.90;;;;;;5052809;28;20401;-74
2021/12/13 11:56:28;;;;;;;;;;;8.60;99.90;;;;;;5052238;28;20339;-75
2021/12/13 11:58:54;;;;;;;;;;;8.60;99.90;;;;;;5051406;28;19905;-74
2021/12/13 12:01:40;;;;;;;;;;;8.60;99.90;;;;;;5049635;28;19913;-74
2021/12/13 12:04:44;;;;;;;;;;;8.70;99.90;;;;;;5052213;28;19904;-74
2021/12/13 12:07:12;;;;;;;;;;;8.70;99.90;;;;;;5049702;28;19923;-74
2021/12/13 12:09:56;;;;;;;;;;;8.80;99.90;;;;;;5049289;28;19909;-74
2021/12/13 12:12:22;;;;;;;;;;;8.80;99.90;;;;;;5050035;28;19908;-74
2021/12/13 12:14:48;;;;;;;;;;;8.80;99.90;;;;;;5049442;28;20271;-74
2021/12/13 12:17:14;;;;;;;;;;;8.80;99.90;;;;;;5033093;28;19905;-74
2021/12/13 12:19:41;;;;;;;;;;;8.90;99.90;;;;;;5048836;28;19955;-73
2021/12/13 12:22:08;;;;;;;;;;;8.80;99.90;;;;;;5049019;28;19913;-74
2021/12/13 12:24:37;;;;;;;;;;;8.80;99.90;;;;;;5049642;28;19988;-73
2021/12/13 12:27:12;;;;;;;;;;;8.80;99.90;;;;;;5049206;28;19912;-73
2021/12/13 12:29:44;;;;;;;;;;;8.80;99.90;;;;;;5049237;28;19905;-73
2021/12/13 12:32:20;;;;;;;;;;;8.80;99.90;;;;;;5049688;28;20369;-73
2021/12/13 12:34:56;;;;;;;;;;;8.90;99.90;;;;;;5049184;28;19904;-73
2021/12/13 12:37:30;;;;;;;;;;;8.90;99.90;;;;;;5050146;28;19911;-73
2021/12/13 12:40:08;;;;;;;;;;;8.90;99.90;;;;;;5051249;28;19955;-73
2021/12/13 12:42:35;;;;;;;;;;;8.80;99.90;;;;;;5051690;28;19912;-74
2021/12/13 12:45:07;;;;;;;;;;;8.90;99.90;;;;;;5051466;28;19920;-75
2021/12/13 12:47:36;;;;;;;;;;;8.90;99.90;;;;;;5051792;28;19904;-73
2021/12/13 12:50:16;;;;;;;;;;;8.90;99.90;;;;;;5050393;28;19904;-73
2021/12/13 12:52:49;;;;;;;;;;;8.90;99.90;;;;;;5052330;28;19958;-74
2021/12/13 12:55:16;;;;;;;;;;;8.90;99.90;;;;;;5051680;28;20363;-73
2021/12/13 12:57:42;;;;;;;;;;;8.90;99.90;;;;;;5051286;28;20370;-73
2021/12/13 13:00:08;;;;;;;;;;;8.90;99.90;;;;;;5052006;28;19935;-75
2021/12/13 13:02:33;;;;;;;;;;;8.90;99.90;;;;;;5054431;28;19913;-74
2021/12/13 13:05:03;;;;;;;;;;;9.00;99.90;;;;;;5055208;28;20494;-74
2021/12/13 13:07:30;;;;;;;;;;;8.90;99.90;;;;;;5055605;28;20002;-73
2021/12/13 13:10:00;;;;;;;;;;;9.00;99.90;;;;;;5054920;28;19911;-74
2021/12/13 13:12:29;;;;;;;;;;;9.00;99.90;;;;;;5055762;28;20278;-73
2021/12/13 13:14:57;;;;;;;;;;;9.00;99.90;;;;;;5055092;28;19927;-74
2021/12/13 13:17:25;;;;;;;;;;;9.00;99.90;;;;;;5055695;28;19908;-73
2021/12/13 13:19:55;;;;;;;;;;;9.00;99.90;;;;;;5054728;28;19913;-73
2021/12/13 13:22:24;;;;;;;;;;;9.00;99.90;;;;;;5055511;28;20019;-74
2021/12/13 13:24:51;;;;;;;;;;;8.90;99.90;;;;;;5054693;28;20352;-73
2021/12/13 13:27:18;;;;;;;;;;;9.00;99.90;;;;;;5055505;28;19905;-73
2021/12/13 13:29:44;;;;;;;;;;;8.90;99.90;;;;;;5054912;28;20000;-74
2021/12/13 13:32:12;;;;;;;;;;;8.90;99.90;;;;;;5054266;28;19951;-74
2021/12/13 13:34:41;;;;;;;;;;;8.90;99.90;;;;;;5055347;28;20374;-74
2021/12/13 13:37:15;;;;;;;;;;;8.90;99.90;;;;;;5055440;28;19905;-73
2021/12/13 13:39:43;;;;;;;;;;;8.90;99.90;;;;;;5054913;28;19909;-74
2021/12/13 13:42:08;;;;;;;;;;;8.80;99.90;;;;;;5054994;28;19920;-74
2021/12/13 13:44:40;;;;;;;;;;;8.80;99.90;;;;;;5054962;28;19934;-74
2021/12/13 13:47:17;;;;;;;;;;;8.80;99.90;;;;;;5054963;28;19921;-74
2021/12/13 13:49:43;;;;;;;;;;;8.80;99.90;;;;;;5054625;28;19904;-74
2021/12/13 13:52:13;;;;;;;;;;;8.80;99.90;;;;;;5055040;28;19905;-74
2021/12/13 13:54:39;;;;;;;;;;;8.70;99.90;;;;;;5054821;28;19928;-73
2021/12/13 13:57:11;;;;;;;;;;;8.70;99.90;;;;;;5055106;28;20339;-74
2021/12/13 13:59:38;;;;;;;;;;;8.60;99.90;;;;;;5055227;28;20035;-75
2021/12/13 14:02:07;;;;;;;;;;;8.60;99.90;;;;;;5054336;28;19965;-75
2021/12/13 14:04:35;;;;;;;;;;;8.60;99.90;;;;;;5055205;28;19912;-74
2021/12/13 14:07:13;;;;;;;;;;;8.50;99.90;;;;;;5054469;28;19991;-75
2021/12/13 14:09:43;;;;;;;;;;;8.50;99.90;;;;;;5070079;28;19905;-75
2021/12/13 14:12:11;;;;;;;;;;;8.50;99.90;;;;;;5055212;28;19905;-74
2021/12/13 14:14:39;;;;;;;;;;;8.50;99.90;;;;;;5053724;28;19905;-74
2021/12/13 14:17:05;;;;;;;;;;;8.50;99.90;;;;;;5054338;28;19905;-75
2021/12/13 14:19:36;;;;;;;;;;;8.50;99.90;;;;;;5054743;28;19908;-74
2021/12/13 14:22:02;;;;;;;;;;;8.50;99.90;;;;;;5053578;28;19920;-73
2021/12/13 14:24:29;;;;;;;;;;;8.50;99.90;;;;;;5054680;28;19904;-73
2021/12/13 14:27:10;;;;;;;;;;;8.50;99.90;;;;;;5054373;28;19904;-74
2021/12/13 14:29:35;;;;;;;;;;;8.50;99.90;;;;;;5054344;28;19963;-73
2021/12/13 14:32:01;;;;;;;;;;;8.50;99.90;;;;;;5053708;28;20042;-74
2021/12/13 14:34:27;;;;;;;;;;;8.50;99.90;;;;;;5054187;28;20343;-73
2021/12/13 14:36:57;;;;;;;;;;;8.50;99.90;;;;;;5053750;28;20275;-74
2021/12/13 14:39:28;;;;;;;;;;;8.50;99.90;;;;;;5054262;28;19904;-74
2021/12/13 14:41:55;;;;;;;;;;;8.50;99.90;;;;;;5053213;28;19916;-74
2021/12/13 14:44:26;;;;;;;;;;;8.40;99.90;;;;;;5055601;28;19909;-74
2021/12/13 14:46:53;;;;;;;;;;;8.50;99.90;;;;;;5053525;28;19908;-74
2021/12/13 14:49:20;;;;;;;;;;;8.50;99.90;;;;;;5054233;28;19904;-74
2021/12/13 14:51:47;;;;;;;;;;;8.50;99.90;;;;;;5053155;28;19959;-74
2021/12/13 14:54:14;;;;;;;;;;;8.50;99.90;;;;;;5053776;28;19904;-73
2021/12/13 14:56:40;;;;;;;;;;;8.50;99.90;;;;;;5053055;28;19904;-75
2021/12/13 14:59:07;;;;;;;;;;;8.50;99.90;;;;;;5054018;28;19951;-74
2021/12/13 15:01:35;;;;;;;;;;;8.50;99.90;;;;;;5053558;28;20316;-74